Skip Navigation Links Skip Navigation Links

Current Weather

Sohar Majis, Oman

For information only: do not use for flight planning or navigation.
Latest weather
Observation time Saturday, October 19, 2019 1:50 PM GST
Local time Saturday, October 19, 2019 2:20 PM GST
Flight conditions Conditions unknown
Winds
Wind direction Northeast (50°)
Wind speed 14 mph
Sky condition
Ceiling unlimited
Temperature 93°F
Dewpoint 61°F
Altimeter 29.85 in.Hg
Derived measurements
Relative humidity 34%
Heat index 93°F
Density altitude 2489 ft.
Remarks
Fully automated report.
METAR OOSH 190950Z AUTO 05012KT //// 34/16 Q1011

Settings

Location code

InnerDrive.Weather 4.0.6770.0 Release CLR 4.0.30319.42000
Copyright ©2018 Inner Drive Technology. All rights reserved. Portions Copyright ©1986-2018 David Braverman.

Find weather

Site navigation


Skip Navigation Links

Place info

Page info

PayPal - The safer, easier way to pay online!

Return home.

Copyright ©2019 Inner Drive Technology. Purveyors of fine, hand-crafted computer software. Page printed 2019-10-19T10:20:24 UTC.